Time;durP1;ratioP1;P1;durP2;ratioP2;P2;SDS_P1;SDS_P2;PMS_P1;PMS_P2;Temp;Humidity;BMP_temperature;BMP_pressure;BME280_temperature;BME280_humidity;BME280_pressure;Samples;Min_cycle;Max_cycle;Signal;HPM_P1;HPM_P2
2022/08/15 00:02:34;;;;;;;14.70;11.70;;;;;;;17.26;85.97;99383.84;2028275;87;21061;-68
2022/08/15 00:05:35;;;;;;;14.83;11.50;;;;;;;17.22;86.48;99379.95;2029435;87;21027;-70
2022/08/15 00:08:41;;;;;;;13.60;11.75;;;;;;;17.19;86.36;99376.40;2017051;87;21622;-68
2022/08/15 00:11:47;;;;;;;13.00;10.50;;;;;;;17.17;86.51;99371.78;2017784;87;21607;-68
2022/08/15 00:14:49;;;;;;;20.70;9.00;;;;;;;17.14;86.65;99371.70;2002988;87;21083;-69
2022/08/15 00:17:52;;;;;;;17.25;9.28;;;;;;;17.13;86.50;99381.33;1988169;88;21121;-69
2022/08/15 00:20:55;;;;;;;15.08;9.73;;;;;;;17.07;86.17;99394.30;2025077;87;21065;-69
2022/08/15 00:23:56;;;;;;;20.88;9.53;;;;;;;17.07;86.50;99392.97;2021225;87;21092;-69
2022/08/15 00:27:04;;;;;;;20.27;9.93;;;;;;;17.04;86.20;99383.52;2022838;87;21037;-69
2022/08/15 00:30:08;;;;;;;18.52;10.30;;;;;;;17.08;86.46;99383.87;2021940;87;21009;-69
2022/08/15 00:33:11;;;;;;;16.70;13.15;;;;;;;17.07;86.12;99387.61;1993128;88;21091;-69
2022/08/15 00:36:14;;;;;;;19.52;14.78;;;;;;;17.03;86.92;99381.36;1988380;88;21069;-68
2022/08/15 00:39:20;;;;;;;20.55;16.02;;;;;;;17.08;87.82;99383.87;1993847;88;21612;-69
2022/08/15 00:42:25;;;;;;;18.77;14.47;;;;;;;17.10;88.26;99391.98;1996485;88;21066;-69
2022/08/15 00:45:26;;;;;;;20.65;15.50;;;;;;;17.10;88.37;99387.15;1957531;89;21437;-69
2022/08/15 00:48:43;;;;;;;22.48;14.30;;;;;;;17.10;88.47;99385.81;1991482;88;21068;-72
2022/08/15 00:51:51;;;;;;;19.82;15.38;;;;;;;17.09;88.57;99387.67;1988551;88;21586;-69
2022/08/15 00:55:07;;;;;;;17.52;15.63;;;;;;;17.09;88.87;99385.00;1993748;88;21118;-69
2022/08/15 00:58:09;;;;;;;21.73;16.23;;;;;;;17.12;89.30;99378.34;1981803;88;21610;-69
2022/08/15 01:01:14;;;;;;;20.43;15.03;;;;;;;17.15;89.46;99380.59;1992031;88;21083;-70
2022/08/15 01:04:16;;;;;;;18.30;16.20;;;;;;;17.13;89.28;99382.67;1993499;88;21001;-68
2022/08/15 01:07:20;;;;;;;19.87;16.40;;;;;;;17.13;89.36;99378.66;1984303;89;21045;-70
2022/08/15 01:10:22;;;;;;;21.62;16.45;;;;;;;17.16;89.53;99386.23;1997518;88;21084;-71
2022/08/15 01:13:23;;;;;;;17.87;14.53;;;;;;;17.13;89.32;99369.27;1957312;89;21063;-69
2022/08/15 01:16:26;;;;;;;20.82;12.33;;;;;;;17.10;89.19;99365.71;1959164;89;21039;-69
2022/08/15 01:19:32;;;;;;;19.15;12.78;;;;;;;17.07;88.74;99364.30;1988440;88;21155;-69
2022/08/15 01:23:21;;;;;;;15.20;12.10;;;;;;;17.05;88.70;99365.04;1989112;88;21108;-69
2022/08/15 01:26:25;;;;;;;14.65;10.90;;;;;;;16.96;88.80;99364.54;1994669;87;21057;-69
2022/08/15 01:29:27;;;;;;;18.30;13.75;;;;;;;16.89;88.81;99362.98;1975853;88;21139;-69
2022/08/15 01:32:28;;;;;;;17.23;13.62;;;;;;;16.87;88.88;99359.20;1990851;88;21080;-69
2022/08/15 01:35:31;;;;;;;19.32;14.25;;;;;;;16.86;88.99;99356.21;2031654;86;21077;-71
2022/08/15 01:38:39;;;;;;;18.27;15.15;;;;;;;16.82;89.11;99360.40;1996542;88;21098;-69
2022/08/15 01:41:47;;;;;;;19.52;14.13;;;;;;;16.76;89.20;99349.22;1994529;88;21567;-69
2022/08/15 01:44:56;;;;;;;20.00;15.48;;;;;;;16.77;89.20;99343.66;1993231;88;20978;-69
2022/08/15 01:48:12;;;;;;;16.00;12.78;;;;;;;16.75;89.05;99346.23;1993644;88;21028;-69
2022/08/15 01:51:17;;;;;;;24.90;16.30;;;;;;;16.69;88.89;99348.47;1993387;88;21046;-69
2022/08/15 01:54:20;;;;;;;18.70;15.70;;;;;;;16.64;89.04;99345.16;2022481;87;21066;-69
2022/08/15 01:57:21;;;;;;;23.45;17.42;;;;;;;16.63;89.27;99343.50;2026732;87;21056;-69
2022/08/15 02:00:23;;;;;;;21.40;17.07;;;;;;;16.63;89.34;99347.52;2027311;86;21697;-73
2022/08/15 02:03:33;;;;;;;25.35;18.05;;;;;;;16.62;89.65;99343.73;2026929;86;20990;-69
2022/08/15 02:06:36;;;;;;;23.30;18.05;;;;;;;16.61;90.12;99339.41;2028019;86;21593;-69
2022/08/15 02:09:41;;;;;;;29.00;18.05;;;;;;;16.58;90.21;99347.36;2027461;86;21044;-69
2022/08/15 02:12:43;;;;;;;22.48;17.62;;;;;;;16.54;90.30;99345.66;2026848;86;21674;-70
2022/08/15 02:15:44;;;;;;;20.77;15.88;;;;;;;16.49;90.25;99349.53;2026593;86;21086;-69
2022/08/15 02:18:47;;;;;;;21.73;17.20;;;;;;;16.47;90.15;99350.80;2031858;86;21113;-68
2022/08/15 02:21:49;;;;;;;19.90;15.53;;;;;;;16.46;90.21;99344.63;2027407;86;21609;-69
2022/08/15 02:24:50;;;;;;;20.88;14.25;;;;;;;16.48;90.22;99345.23;2027204;86;21055;-70
2022/08/15 02:27:53;;;;;;;17.32;12.95;;;;;;;16.48;89.85;99347.91;2026257;86;20966;-70
2022/08/15 02:30:57;;;;;;;18.62;12.95;;;;;;;16.47;89.62;99342.27;2027049;86;21094;-69
2022/08/15 02:34:01;;;;;;;20.90;15.13;;;;;;;16.45;89.25;99347.02;2026128;87;21133;-69
2022/08/15 02:37:05;;;;;;;20.45;16.07;;;;;;;16.40;89.23;99344.71;2024101;87;21502;-68
2022/08/15 02:40:12;;;;;;;20.00;16.70;;;;;;;16.32;89.19;99342.62;2022101;87;21017;-68
2022/08/15 02:43:14;;;;;;;21.93;17.92;;;;;;;16.30;89.67;99343.88;2025204;87;21021;-69
2022/08/15 02:46:16;;;;;;;20.37;14.78;;;;;;;16.30;89.82;99334.02;2024645;87;21487;-69
2022/08/15 02:49:22;;;;;;;25.50;19.12;;;;;;;16.34;89.90;99335.72;1988713;87;21163;-69
2022/08/15 02:52:24;;;;;;;24.32;20.60;;;;;;;16.39;90.14;99344.39;2021082;87;21077;-69
2022/08/15 02:55:27;;;;;;;27.35;19.40;;;;;;;16.45;90.73;99334.16;1993466;87;21046;-69
2022/08/15 02:58:28;;;;;;;27.02;19.65;;;;;;;16.47;90.57;99334.23;1992214;88;21076;-69
2022/08/15 03:01:33;;;;;;;24.92;14.78;;;;;;;16.48;90.23;99330.50;2026119;87;20997;-71
2022/08/15 03:04:35;;;;;;;23.90;19.20;;;;;;;16.51;89.92;99331.91;2025828;87;21037;-71
2022/08/15 03:07:37;;;;;;;22.90;18.12;;;;;;;16.51;90.12;99334.06;2018858;87;21131;-69
2022/08/15 03:10:41;;;;;;;26.60;18.30;;;;;;;16.53;90.13;99330.66;2022272;87;21116;-69
2022/08/15 03:13:44;;;;;;;25.08;15.10;;;;;;;16.55;90.10;99330.41;2025596;87;21148;-69
2022/08/15 03:16:47;;;;;;;25.72;18.45;;;;;;;16.54;89.63;99333.61;1995061;88;21558;-69
2022/08/15 03:19:49;;;;;;;27.00;18.62;;;;;;;16.53;89.64;99324.48;1999701;88;21069;-69
2022/08/15 03:22:53;;;;;;;21.75;17.80;;;;;;;16.49;89.84;99320.60;2021296;87;21083;-69
2022/08/15 03:25:59;;;;;;;23.00;18.27;;;;;;;16.47;89.86;99313.31;1986336;88;21050;-69
2022/08/15 03:29:00;;;;;;;28.70;21.65;;;;;;;16.48;89.83;99317.11;2024227;87;21041;-68
2022/08/15 03:32:11;;;;;;;22.48;16.75;;;;;;;16.47;89.96;99314.64;1988274;88;21727;-69
2022/08/15 03:35:14;;;;;;;26.90;15.35;;;;;;;16.41;89.91;99312.88;2025220;87;21132;-69
2022/08/15 03:38:17;;;;;;;22.85;13.48;;;;;;;16.41;89.61;99318.23;2044932;85;21503;-69
2022/08/15 03:41:19;;;;;;;23.40;16.82;;;;;;;16.38;88.98;99312.80;2023799;87;21041;-68
2022/08/15 03:44:21;;;;;;;25.30;17.00;;;;;;;16.38;89.22;99302.61;2021936;87;21013;-69
2022/08/15 03:47:22;;;;;;;24.43;19.25;;;;;;;16.37;89.17;99311.17;2022731;87;21072;-69
2022/08/15 03:50:24;;;;;;;27.82;22.32;;;;;;;16.30;89.21;99315.77;2022542;87;21079;-69
2022/08/15 03:53:30;;;;;;;33.92;23.52;;;;;;;16.30;89.82;99315.77;2021407;87;21048;-69
2022/08/15 03:56:33;;;;;;;29.82;23.22;;;;;;;16.29;90.12;99311.47;2027029;87;21015;-72
2022/08/15 03:59:36;;;;;;;33.05;22.70;;;;;;;16.30;90.29;99307.24;2021846;87;21151;-69
2022/08/15 04:02:37;;;;;;;33.28;25.32;;;;;;;16.35;90.69;99310.05;1985788;88;21009;-69
2022/08/15 04:05:40;;;;;;;33.25;25.27;;;;;;;16.41;90.97;99313.69;2018791;87;21072;-69
2022/08/15 04:08:46;;;;;;;29.40;23.77;;;;;;;16.48;91.18;99301.05;1987421;88;21077;-69
2022/08/15 04:11:48;;;;;;;32.20;24.45;;;;;;;16.64;91.33;99308.16;2022178;87;21040;-70
2022/08/15 04:14:51;;;;;;;33.60;25.48;;;;;;;16.85;91.45;99305.55;2023559;87;21595;-68
2022/08/15 04:17:52;;;;;;;31.50;24.98;;;;;;;17.09;91.59;99303.75;2004827;87;21017;-68
2022/08/15 04:20:59;;;;;;;28.42;22.87;;;;;;;17.33;91.46;99294.72;2023369;87;21594;-69
2022/08/15 04:24:01;;;;;;;28.65;23.87;;;;;;;17.61;91.45;99295.92;2023304;87;21123;-69
2022/08/15 04:27:02;;;;;;;29.15;23.95;;;;;;;17.95;91.21;99294.84;1985252;88;21046;-69
2022/08/15 04:30:07;;;;;;;26.87;23.00;;;;;;;18.28;90.85;99291.00;2026851;87;22148;-69
2022/08/15 04:33:27;;;;;;;27.52;22.98;;;;;;;18.65;90.58;99287.96;2023352;87;21568;-70
2022/08/15 04:36:28;;;;;;;27.00;21.63;;;;;;;19.03;89.94;99293.23;1997619;87;21544;-69
2022/08/15 04:39:30;;;;;;;31.40;21.57;;;;;;;19.34;88.83;99295.91;1992855;88;21147;-70
2022/08/15 04:42:33;;;;;;;24.07;21.23;;;;;;;19.59;88.31;99296.05;1996496;88;21544;-68
2022/08/15 04:45:35;;;;;;;28.00;21.12;;;;;;;19.97;87.88;99302.56;1961905;90;21150;-70
2022/08/15 04:48:36;;;;;;;26.93;21.40;;;;;;;20.12;86.43;99302.22;1961451;90;21049;-69
2022/08/15 04:51:37;;;;;;;24.57;21.07;;;;;;;20.27;85.68;99300.80;1957502;90;21091;-69
2022/08/15 04:54:41;;;;;;;26.17;21.52;;;;;;;20.35;84.75;99297.13;1961114;90;21061;-70
2022/08/15 04:57:47;;;;;;;29.77;22.60;;;;;;;20.29;84.11;99298.67;1989431;87;21132;-69
2022/08/15 05:01:01;;;;;;;27.10;22.07;;;;;;;20.03;83.41;99307.77;1994529;87;21076;-72
2022/08/15 05:04:04;;;;;;;27.85;23.25;;;;;;;19.74;83.64;99298.17;1992381;88;21176;-68
2022/08/15 05:07:05;;;;;;;27.80;22.40;;;;;;;19.60;84.05;99292.31;1964256;90;21018;-68
2022/08/15 05:10:08;;;;;;;25.45;21.97;;;;;;;19.73;84.63;99288.48;1962622;90;21101;-69
2022/08/15 05:13:18;;;;;;;27.00;23.15;;;;;;;20.18;85.22;99286.14;1964086;89;21599;-68
2022/08/15 05:16:20;;;;;;;24.15;21.33;;;;;;;20.66;84.53;99295.36;1996237;88;21051;-68
2022/08/15 05:19:21;;;;;;;25.45;21.17;;;;;;;21.09;84.15;99289.08;1991541;88;21000;-68
2022/08/15 05:22:22;;;;;;;26.33;20.95;;;;;;;21.55;82.98;99292.17;1988348;87;21098;-72
2022/08/15 05:25:24;;;;;;;27.17;22.60;;;;;;;21.63;81.04;99286.84;1961636;89;20997;-69
2022/08/15 05:28:26;;;;;;;25.52;20.85;;;;;;;21.68;81.24;99293.09;1992537;88;21583;-69
2022/08/15 05:31:28;;;;;;;23.67;21.17;;;;;;;21.90;80.83;99301.58;1994361;88;21080;-69
2022/08/15 05:34:30;;;;;;;26.12;21.12;;;;;;;21.90;79.85;99302.38;1970489;88;21588;-68
2022/08/15 05:37:33;;;;;;;25.40;21.48;;;;;;;21.76;79.24;99295.81;2020976;87;21512;-69
2022/08/15 05:41:00;;;;;;;23.80;21.07;;;;;;;21.67;79.48;99297.38;2020124;87;20996;-69
2022/08/15 05:44:33;;;;;;;25.30;21.87;;;;;;;21.74;79.71;99294.44;2026746;87;21481;-68
2022/08/15 05:47:39;;;;;;;24.72;21.33;;;;;;;22.07;79.85;99298.70;1886898;93;21088;-69
2022/08/15 05:50:51;;;;;;;24.65;21.02;;;;;;;22.48;79.02;99309.73;2018847;86;21117;-69
2022/08/15 05:54:18;;;;;;;26.57;19.80;;;;;;;22.66;78.25;99305.73;1991844;87;21132;-69
2022/08/15 05:57:48;;;;;;;21.95;19.60;;;;;;;22.80;77.77;99291.98;1989328;88;21116;-68
2022/08/15 06:00:57;;;;;;;27.95;21.33;;;;;;;22.91;76.91;99295.52;2026134;87;21055;-68
2022/08/15 06:04:13;;;;;;;22.80;19.92;;;;;;;22.82;76.93;99306.86;2019106;87;21043;-67
2022/08/15 06:07:18;;;;;;;25.50;20.50;;;;;;;23.10;76.52;99295.31;2020950;87;21571;-68
2022/08/15 06:10:33;;;;;;;22.07;19.42;;;;;;;23.37;75.52;99298.29;2023250;87;21104;-68
2022/08/15 06:13:39;;;;;;;27.70;20.32;;;;;;;23.48;74.93;99286.38;2019965;87;21084;-69
2022/08/15 06:16:49;;;;;;;27.07;20.40;;;;;;;23.83;74.77;99292.87;2026868;87;21054;-68
2022/08/15 06:19:54;;;;;;;25.95;19.92;;;;;;;23.96;73.38;99292.28;2023215;87;21120;-68
2022/08/15 06:23:16;;;;;;;22.67;19.25;;;;;;;23.96;73.20;99298.25;1995430;87;20998;-68
2022/08/15 06:26:39;;;;;;;26.50;20.48;;;;;;;24.03;72.89;99300.14;2025156;87;21064;-69
2022/08/15 06:30:22;;;;;;;26.05;20.55;;;;;;;23.92;71.75;99303.42;2022113;87;21174;-68
2022/08/15 06:33:35;;;;;;;23.35;19.65;;;;;;;23.66;72.34;99298.56;1953026;87;21108;-70
2022/08/15 06:36:51;;;;;;;24.40;19.65;;;;;;;23.38;72.68;99310.22;1998004;87;21089;-69
2022/08/15 06:40:20;;;;;;;27.15;21.17;;;;;;;23.32;72.62;99312.66;2022825;87;21076;-69
2022/08/15 06:43:22;;;;;;;22.82;20.12;;;;;;;23.38;73.31;99301.28;2025397;87;21035;-69
2022/08/15 06:46:35;;;;;;;22.93;19.90;;;;;;;23.66;73.14;99299.92;2022266;87;21092;-70
2022/08/15 06:49:46;;;;;;;28.27;20.77;;;;;;;23.66;72.21;99308.84;2021868;87;21165;-69
2022/08/15 06:52:58;;;;;;;23.67;19.77;;;;;;;23.55;72.25;99301.81;2024195;87;20973;-69
2022/08/15 06:56:11;;;;;;;29.75;21.27;;;;;;;23.61;71.65;99310.75;2024513;87;21747;-69
2022/08/15 06:59:36;;;;;;;25.92;20.23;;;;;;;23.41;71.86;99312.92;2026202;87;21072;-70
2022/08/15 07:02:58;;;;;;;22.93;20.45;;;;;;;23.35;72.50;99311.30;2021032;86;21065;-70
2022/08/15 07:06:02;;;;;;;22.27;19.70;;;;;;;23.82;73.14;99308.84;2028861;86;21004;-70
2022/08/15 07:09:38;;;;;;;27.82;20.10;;;;;;;24.33;71.42;99304.66;2023171;87;21162;-70
2022/08/15 07:13:10;;;;;;;22.48;18.65;;;;;;;24.76;72.01;99309.09;1990084;88;21574;-70
2022/08/15 07:16:22;;;;;;;20.90;18.70;;;;;;;24.98;70.32;99306.79;1991259;88;21068;-69
2022/08/15 07:19:25;;;;;;;22.35;18.42;;;;;;;25.00;70.16;99303.78;2027075;86;21065;-70
2022/08/15 07:22:30;;;;;;;26.30;20.57;;;;;;;25.42;70.40;99306.48;2026323;87;21040;-70
2022/08/15 07:25:33;;;;;;;26.93;20.35;;;;;;;25.88;69.03;99308.27;2020712;87;21065;-71
2022/08/15 07:28:37;;;;;;;24.45;17.37;;;;;;;26.20;68.41;99301.39;2021003;87;21472;-69
2022/08/15 07:31:43;;;;;;;24.55;20.65;;;;;;;26.70;68.85;99308.69;1984964;88;21054;-69
2022/08/15 07:34:55;;;;;;;22.95;18.55;;;;;;;27.20;66.96;99309.08;2024609;87;21069;-70
2022/08/15 07:38:06;;;;;;;25.00;19.10;;;;;;;27.43;66.52;99307.91;1994995;87;21073;-70
2022/08/15 07:41:22;;;;;;;22.02;18.10;;;;;;;27.79;65.53;99308.62;2019309;87;21927;-70
2022/08/15 07:44:30;;;;;;;24.82;19.92;;;;;;;27.67;64.10;99300.94;2029048;87;21646;-70
2022/08/15 07:47:34;;;;;;;24.82;19.95;;;;;;;27.50;63.04;99299.58;1988951;88;21512;-73
2022/08/15 07:50:42;;;;;;;21.90;19.60;;;;;;;27.66;63.31;99296.60;2020561;87;21005;-69
2022/08/15 07:54:05;;;;;;;24.75;18.98;;;;;;;27.91;62.34;99294.80;2020505;87;21109;-69
2022/08/15 07:57:33;;;;;;;22.48;17.82;;;;;;;27.88;61.73;99299.50;2020145;87;21607;-70
2022/08/15 08:00:36;;;;;;;22.37;18.77;;;;;;;27.80;62.20;99304.28;2019669;87;21053;-70
2022/08/15 08:03:43;;;;;;;24.82;17.62;;;;;;;27.94;61.51;99304.30;2019962;87;21598;-70
2022/08/15 08:07:20;;;;;;;20.08;16.62;;;;;;;27.87;62.15;99300.58;2022464;87;21574;-70
2022/08/15 08:11:05;;;;;;;18.98;16.77;;;;;;;28.04;61.12;99299.99;2014320;87;21055;-70
2022/08/15 08:14:17;;;;;;;20.82;18.05;;;;;;;27.69;60.90;99298.73;1986473;88;21071;-70
2022/08/15 08:18:02;;;;;;;18.92;16.50;;;;;;;27.59;61.84;99294.25;2018332;87;21056;-70
2022/08/15 08:21:09;;;;;;;22.10;16.48;;;;;;;28.01;62.20;99297.07;1993512;88;21525;-70
2022/08/15 08:24:27;;;;;;;18.35;16.23;;;;;;;28.25;60.68;99296.33;2023880;87;21072;-70
2022/08/15 08:28:07;;;;;;;17.48;15.15;;;;;;;28.36;60.74;99301.02;2003563;87;21056;-70
2022/08/15 08:31:40;;;;;;;21.05;17.32;;;;;;;28.43;60.25;99297.34;1993071;87;21116;-70
2022/08/15 08:35:05;;;;;;;19.57;16.42;;;;;;;28.26;58.78;99289.75;2028554;87;21126;-71
2022/08/15 08:38:33;;;;;;;19.12;15.05;;;;;;;28.27;59.15;99290.02;2015485;87;21136;-70
2022/08/15 08:41:45;;;;;;;19.95;14.87;;;;;;;28.41;59.30;99294.10;2014227;87;21021;-70
2022/08/15 08:45:10;;;;;;;17.37;14.70;;;;;;;28.68;59.07;99296.55;2012602;87;21025;-69
2022/08/15 08:48:22;;;;;;;17.05;13.95;;;;;;;28.68;59.07;99296.55;2011254;87;21590;-70
2022/08/15 08:51:44;;;;;;;14.75;13.15;;;;;;;28.74;57.88;99272.12;2013753;87;21512;-71
2022/08/15 08:55:06;;;;;;;14.70;13.18;;;;;;;28.92;57.78;99296.27;2014546;87;21587;-70
2022/08/15 08:58:16;;;;;;;15.95;14.25;;;;;;;28.88;57.11;99293.91;2016542;87;21070;-72
2022/08/15 09:01:24;;;;;;;14.45;12.82;;;;;;;28.83;55.14;99292.09;2016047;87;21076;-69
2022/08/15 09:04:37;;;;;;;20.52;12.53;;;;;;;28.68;55.26;99292.45;2016064;87;21464;-70
2022/08/15 09:07:43;;;;;;;13.58;12.00;;;;;;;28.69;56.28;99294.06;2012131;87;21022;-69
2022/08/15 09:10:48;;;;;;;13.48;12.07;;;;;;;28.90;56.86;99287.03;2013936;87;21012;-69
2022/08/15 09:13:51;;;;;;;15.40;11.55;;;;;;;29.09;55.91;99284.17;2011413;87;21064;-69
2022/08/15 09:16:58;;;;;;;14.73;12.53;;;;;;;29.15;55.33;99283.49;2019392;87;21122;-71
2022/08/15 09:20:22;;;;;;;14.87;12.50;;;;;;;29.24;56.07;99280.26;2022396;87;21565;-69
2022/08/15 09:23:24;;;;;;;18.62;12.65;;;;;;;29.58;55.69;99277.49;2023732;87;20990;-71
2022/08/15 09:26:43;;;;;;;14.30;12.55;;;;;;;29.67;55.69;99276.43;2026574;87;21091;-71
2022/08/15 09:29:55;;;;;;;12.90;11.73;;;;;;;30.06;55.00;99274.03;2023953;87;21143;-72
2022/08/15 09:33:20;;;;;;;14.43;12.90;;;;;;;30.63;54.83;99268.54;1996973;88;21538;-70
2022/08/15 09:36:41;;;;;;;15.35;12.78;;;;;;;30.82;53.68;99273.17;2025776;87;21611;-70
2022/08/15 09:40:01;;;;;;;14.45;13.05;;;;;;;30.81;51.86;99272.95;2031936;87;21041;-71
2022/08/15 09:43:17;;;;;;;14.60;12.30;;;;;;;30.54;52.70;99265.00;2031407;87;21009;-70
2022/08/15 09:46:49;;;;;;;14.23;12.58;;;;;;;30.47;52.33;99262.74;1982592;88;21033;-70
2022/08/15 09:50:18;;;;;;;13.62;11.63;;;;;;;30.46;52.50;99260.31;2039367;86;21521;-69
2022/08/15 09:53:38;;;;;;;;;;;;;;;30.32;51.87;99254.97;2041103;86;21049;-70
2022/08/15 09:56:40;;;;;;;14.28;12.50;;;;;;;30.25;51.82;99255.45;2040319;86;20163;-70
2022/08/15 09:59:41;;;;;;;18.17;13.15;;;;;;;30.29;51.87;99251.52;2038540;86;21021;-70
2022/08/15 10:02:46;;;;;;;14.30;12.80;;;;;;;30.48;51.81;99252.59;2040749;86;21026;-71
2022/08/15 10:06:05;;;;;;;14.53;13.03;;;;;;;30.63;52.46;99245.84;2040768;86;21084;-71
2022/08/15 10:09:18;;;;;;;13.38;11.90;;;;;;;30.67;51.13;99246.83;1980944;89;21041;-70
2022/08/15 10:12:25;;;;;;;15.38;12.10;;;;;;;30.64;51.21;99239.26;1959714;89;21036;-71
2022/08/15 10:15:41;;;;;;;16.87;13.20;;;;;;;30.35;50.78;99236.01;1988244;88;21485;-71
2022/08/15 10:18:55;;;;;;;15.45;11.70;;;;;;;30.24;51.23;99240.17;1993203;88;21583;-71
2022/08/15 10:22:01;;;;;;;13.35;11.95;;;;;;;29.84;51.37;99242.89;1990169;88;21083;-69
2022/08/15 10:25:28;;;;;;;16.48;12.68;;;;;;;29.88;51.27;99235.69;1988172;88;21555;-69
2022/08/15 10:28:30;;;;;;;33.90;19.92;;;;;;;30.11;49.88;99226.03;2013072;87;21571;-69
2022/08/15 10:31:46;;;;;;;15.98;12.25;;;;;;;29.91;50.88;99224.12;2039674;86;21037;-70
2022/08/15 10:35:24;;;;;;;13.58;11.93;;;;;;;30.13;50.09;99223.78;2040127;86;21070;-69
2022/08/15 10:38:29;;;;;;;25.88;15.48;;;;;;;30.23;50.23;99219.39;1991984;88;21082;-69
2022/08/15 10:41:44;;;;;;;14.10;12.00;;;;;;;30.20;49.29;99222.73;2013759;87;21041;-69
2022/08/15 10:45:11;;;;;;;13.70;12.20;;;;;;;30.21;48.81;99210.66;2027907;87;21548;-70
2022/08/15 10:48:27;;;;;;;19.30;12.90;;;;;;;30.08;48.25;99212.98;1991995;88;21113;-70
2022/08/15 10:51:46;;;;;;;14.65;11.95;;;;;;;30.05;49.10;99215.00;2021479;87;21111;-70
2022/08/15 10:55:16;;;;;;;23.07;13.65;;;;;;;30.27;48.47;99214.91;2023476;87;21504;-70
2022/08/15 10:58:32;;;;;;;18.62;12.70;;;;;;;30.43;48.79;99215.23;2027515;87;21095;-69
2022/08/15 11:01:36;;;;;;;12.50;10.90;;;;;;;30.55;48.80;99203.11;2020258;87;21574;-68
2022/08/15 11:04:41;;;;;;;16.07;12.25;;;;;;;30.34;46.75;99204.28;2023259;87;21072;-68
2022/08/15 11:07:49;;;;;;;13.62;10.93;;;;;;;30.30;47.80;99209.36;1998140;87;21556;-68
2022/08/15 11:10:51;;;;;;;14.28;11.00;;;;;;;30.26;47.56;99202.91;2027310;87;21630;-72
2022/08/15 11:14:11;;;;;;;18.20;12.15;;;;;;;30.12;47.89;99209.84;2017777;87;21033;-67
2022/08/15 11:17:18;;;;;;;15.93;10.78;;;;;;;30.10;47.98;99198.41;2021670;87;21008;-68
2022/08/15 11:20:24;;;;;;;15.25;12.53;;;;;;;30.16;47.83;99193.06;2023307;87;21068;-68
2022/08/15 11:23:39;;;;;;;14.20;11.48;;;;;;;30.35;47.67;99185.39;1989924;88;20990;-69
2022/08/15 11:26:45;;;;;;;20.45;12.05;;;;;;;30.43;47.63;99186.50;2025683;87;21109;-69
2022/08/15 11:29:49;;;;;;;16.73;11.85;;;;;;;30.46;47.95;99192.70;1995777;87;21001;-68
2022/08/15 11:32:52;;;;;;;13.40;11.35;;;;;;;30.65;47.62;99198.42;2025994;87;21519;-68
2022/08/15 11:36:14;;;;;;;13.20;11.28;;;;;;;30.60;47.22;99195.28;2021413;87;21065;-68
2022/08/15 11:39:18;;;;;;;11.33;10.10;;;;;;;30.29;47.16;99197.59;1985025;88;21623;-68
2022/08/15 11:42:23;;;;;;;9.53;8.23;;;;;;;29.99;47.09;99190.27;2023444;87;21025;-68
2022/08/15 11:45:36;;;;;;;11.38;8.83;;;;;;;30.12;45.47;99192.07;2026104;87;21492;-68
2022/08/15 11:48:39;;;;;;;9.43;7.90;;;;;;;30.26;45.13;99196.87;2023729;87;21040;-68
2022/08/15 11:51:45;;;;;;;16.70;9.53;;;;;;;30.36;44.04;99195.20;1992390;88;21537;-68
2022/08/15 11:54:50;;;;;;;9.05;7.22;;;;;;;30.03;44.24;99197.52;2030765;87;21054;-68
2022/08/15 11:58:00;;;;;;;9.78;8.20;;;;;;;29.89;44.67;99183.97;2003662;87;21049;-68
2022/08/15 12:01:20;;;;;;;;;;;;;;;30.13;44.72;99177.28;2025784;87;21060;-74
2022/08/15 12:04:31;;;;;;;9.15;7.60;;;;;;;30.24;44.67;99177.25;2027714;87;20176;-70
2022/08/15 12:07:32;;;;;;;9.68;8.58;;;;;;;30.25;43.79;99169.28;1987144;88;21092;-64
2022/08/15 12:10:39;;;;;;;9.05;7.90;;;;;;;30.40;43.89;99167.98;1983614;88;21514;-61
2022/08/15 12:14:02;;;;;;;11.18;8.08;;;;;;;30.51;43.81;99177.49;1987225;88;21112;-62
2022/08/15 12:17:07;;;;;;;13.30;8.08;;;;;;;30.23;43.70;99181.09;1984628;88;21081;-70
2022/08/15 12:20:09;;;;;;;10.65;8.40;;;;;;;30.34;44.02;99186.50;1993349;87;21034;-63
2022/08/15 12:23:34;;;;;;;11.80;8.23;;;;;;;30.51;43.73;99190.38;1991174;88;21063;-63
2022/08/15 12:26:35;;;;;;;10.60;8.30;;;;;;;30.55;42.57;99184.48;1990066;88;21160;-62
2022/08/15 12:29:39;;;;;;;10.08;8.65;;;;;;;30.45;42.59;99180.72;1987948;88;21045;-64
2022/08/15 12:32:41;;;;;;;12.07;8.45;;;;;;;30.28;42.77;99179.58;1984776;88;21583;-67
2022/08/15 12:35:43;;;;;;;11.35;9.08;;;;;;;29.94;42.39;99184.40;2028059;87;21089;-64
2022/08/15 12:38:45;;;;;;;11.93;8.83;;;;;;;29.68;43.46;99182.96;2026278;86;21048;-71
2022/08/15 12:41:53;;;;;;;9.78;8.78;;;;;;;29.69;44.46;99168.96;2033364;87;21095;-71
2022/08/15 12:45:02;;;;;;;14.25;9.03;;;;;;;29.78;44.92;99171.72;2030529;87;21107;-70
2022/08/15 12:48:09;;;;;;;10.63;8.50;;;;;;;29.78;45.03;99166.25;2025454;87;21539;-70
2022/08/15 12:51:12;;;;;;;9.23;8.18;;;;;;;29.99;44.51;99167.84;2023253;87;21027;-70
2022/08/15 12:54:14;;;;;;;12.07;8.20;;;;;;;30.20;44.40;99161.19;2015043;87;21536;-70
2022/08/15 12:57:16;;;;;;;12.70;8.03;;;;;;;30.27;42.87;99156.09;2019223;87;22326;-71
2022/08/15 13:00:19;;;;;;;10.40;7.87;;;;;;;30.26;43.05;99154.46;2026951;87;20973;-70
2022/08/15 13:03:27;;;;;;;13.93;8.25;;;;;;;30.26;43.64;99145.45;1988658;88;21193;-71
2022/08/15 13:06:36;;;;;;;8.95;7.97;;;;;;;30.33;43.99;99150.70;1989629;88;21128;-73
2022/08/15 13:09:38;;;;;;;11.03;8.13;;;;;;;30.32;43.48;99147.70;2027033;87;21119;-71
2022/08/15 13:12:39;;;;;;;12.15;9.08;;;;;;;30.32;42.46;99133.22;1988134;88;21093;-72
2022/08/15 13:15:40;;;;;;;11.25;9.10;;;;;;;30.19;42.56;99136.34;2020565;87;21076;-71
2022/08/15 13:18:42;;;;;;;11.35;8.18;;;;;;;30.09;43.06;99136.64;2025275;87;21009;-70
2022/08/15 13:25:07;;;;;;;11.50;7.92;;;;;;;29.99;43.07;99133.66;2026496;87;21073;-74
2022/08/15 13:28:08;;;;;;;12.45;9.43;;;;;;;30.02;42.92;99128.92;2005901;87;21515;-71
2022/08/15 13:31:16;;;;;;;10.88;8.65;;;;;;;30.07;43.58;99132.05;2024621;87;21090;-75
2022/08/15 13:34:19;;;;;;;10.58;8.73;;;;;;;30.09;43.57;99127.06;2019162;87;21009;-73
2022/08/15 13:37:25;;;;;;;10.93;9.48;;;;;;;30.18;43.83;99123.77;2019716;87;21006;-71
2022/08/15 13:40:26;;;;;;;10.13;8.50;;;;;;;30.14;43.58;99121.45;1998955;87;21069;-71
2022/08/15 13:43:28;;;;;;;9.80;8.88;;;;;;;30.19;43.75;99120.50;2028680;86;21614;-75
2022/08/15 13:46:29;;;;;;;9.63;8.68;;;;;;;30.27;44.37;99119.70;2024801;87;21053;-71
2022/08/15 13:49:32;;;;;;;11.15;8.70;;;;;;;30.21;43.91;99121.75;2027467;87;21086;-71
2022/08/15 13:52:33;;;;;;;9.73;8.50;;;;;;;29.99;42.73;99110.42;1992009;88;21020;-71
2022/08/15 13:55:34;;;;;;;9.80;8.80;;;;;;;29.86;43.65;99115.46;1994156;88;21000;-73
2022/08/15 13:58:35;;;;;;;8.98;8.08;;;;;;;29.76;44.94;99113.81;1998279;88;21099;-71
2022/08/15 14:01:37;;;;;;;8.83;8.00;;;;;;;29.56;45.75;99112.45;2026589;86;21006;-72
2022/08/15 14:04:40;;;;;;;8.38;7.55;;;;;;;29.48;46.38;99112.69;2004323;87;21527;-71
2022/08/15 14:07:42;;;;;;;8.58;7.78;;;;;;;29.43;46.40;99113.39;2024748;87;21060;-72
2022/08/15 14:10:44;;;;;;;8.28;7.47;;;;;;;29.38;46.86;99111.59;2028082;87;21092;-71
2022/08/15 14:13:46;;;;;;;8.88;8.08;;;;;;;29.37;47.15;99112.73;1987511;88;21112;-75
2022/08/15 14:16:48;;;;;;;11.08;8.43;;;;;;;29.38;47.14;99111.59;1996292;87;21037;-72
2022/08/15 14:19:50;;;;;;;8.98;8.08;;;;;;;29.38;47.36;99110.80;2025242;87;21056;-71
2022/08/15 14:22:51;;;;;;;8.08;7.37;;;;;;;29.19;47.37;99112.41;1988887;88;21014;-71
2022/08/15 14:25:52;;;;;;;8.53;7.65;;;;;;;28.97;47.31;99108.56;2025135;87;20988;-71
2022/08/15 14:28:54;;;;;;;9.48;8.00;;;;;;;28.76;47.92;99097.94;1987298;88;21067;-74
2022/08/15 14:31:55;;;;;;;8.23;7.53;;;;;;;28.55;48.38;99098.46;1994666;87;21133;-71
2022/08/15 14:34:58;;;;;;;12.93;8.00;;;;;;;28.45;48.55;99098.70;1996003;87;21093;-74